sensor_id;sensor_type;location;lat;lon;timestamp;temperature;humidity
19449;DHT22;9863;49.404;8.246;2022-09-14T00:01:36;18.50;99.90
19449;DHT22;9863;49.404;8.246;2022-09-14T00:04:10;18.40;99.90
19449;DHT22;9863;49.404;8.246;2022-09-14T00:06:43;18.40;99.90
19449;DHT22;9863;49.404;8.246;2022-09-14T00:09:17;18.40;99.90
19449;DHT22;9863;49.404;8.246;2022-09-14T00:11:47;18.30;99.90
19449;DHT22;9863;49.404;8.246;2022-09-14T00:14:16;18.30;99.90
19449;DHT22;9863;49.404;8.246;2022-09-14T00:16:44;18.30;99.90
19449;DHT22;9863;49.404;8.246;2022-09-14T00:19:20;18.30;99.90
19449;DHT22;9863;49.404;8.246;2022-09-14T00:21:54;18.30;99.90
19449;DHT22;9863;49.404;8.246;2022-09-14T00:24:25;18.30;99.90
19449;DHT22;9863;49.404;8.246;2022-09-14T00:26:53;18.20;99.90
19449;DHT22;9863;49.404;8.246;2022-09-14T00:29:22;18.10;99.90
19449;DHT22;9863;49.404;8.246;2022-09-14T00:31:50;18.10;99.90
19449;DHT22;9863;49.404;8.246;2022-09-14T00:34:18;18.10;99.90
19449;DHT22;9863;49.404;8.246;2022-09-14T00:36:49;18.00;99.90
19449;DHT22;9863;49.404;8.246;2022-09-14T00:39:20;18.00;99.90
19449;DHT22;9863;49.404;8.246;2022-09-14T00:41:51;18.00;99.90
19449;DHT22;9863;49.404;8.246;2022-09-14T00:46:49;18.00;99.90
19449;DHT22;9863;49.404;8.246;2022-09-14T00:49:39;18.00;99.90
19449;DHT22;9863;49.404;8.246;2022-09-14T00:52:13;18.00;99.90
19449;DHT22;9863;49.404;8.246;2022-09-14T00:54:59;18.00;99.90
19449;DHT22;9863;49.404;8.246;2022-09-14T00:57:35;17.90;99.90
19449;DHT22;9863;49.404;8.246;2022-09-14T01:00:09;17.90;99.90
19449;DHT22;9863;49.404;8.246;2022-09-14T01:02:39;17.90;99.90
19449;DHT22;9863;49.404;8.246;2022-09-14T01:05:08;17.80;99.90
19449;DHT22;9863;49.404;8.246;2022-09-14T01:14:02;17.70;99.90
19449;DHT22;9863;49.404;8.246;2022-09-14T01:16:45;17.70;99.90
19449;DHT22;9863;49.404;8.246;2022-09-14T01:19:26;17.70;99.90
19449;DHT22;9863;49.404;8.246;2022-09-14T01:22:23;17.70;99.90
19449;DHT22;9863;49.404;8.246;2022-09-14T01:34:37;17.70;99.90
19449;DHT22;9863;49.404;8.246;2022-09-14T01:37:18;17.70;99.90
19449;DHT22;9863;49.404;8.246;2022-09-14T01:39:56;17.70;99.90
19449;DHT22;9863;49.404;8.246;2022-09-14T01:42:28;17.70;99.90
19449;DHT22;9863;49.404;8.246;2022-09-14T01:45:01;17.70;99.90
19449;DHT22;9863;49.404;8.246;2022-09-14T01:47:40;17.70;99.90
19449;DHT22;9863;49.404;8.246;2022-09-14T01:50:47;17.60;99.90
19449;DHT22;9863;49.404;8.246;2022-09-14T01:53:19;17.60;99.90
19449;DHT22;9863;49.404;8.246;2022-09-14T01:55:55;16.10;99.90
19449;DHT22;9863;49.404;8.246;2022-09-14T01:58:27;17.60;99.90
19449;DHT22;9863;49.404;8.246;2022-09-14T02:00:58;17.60;99.90
19449;DHT22;9863;49.404;8.246;2022-09-14T02:03:33;17.70;99.90
19449;DHT22;9863;49.404;8.246;2022-09-14T02:06:24;17.70;99.90
19449;DHT22;9863;49.404;8.246;2022-09-14T02:08:55;17.70;99.90
19449;DHT22;9863;49.404;8.246;2022-09-14T02:11:23;17.70;99.90
19449;DHT22;9863;49.404;8.246;2022-09-14T02:13:51;17.70;99.90
19449;DHT22;9863;49.404;8.246;2022-09-14T02:16:20;17.70;99.90
19449;DHT22;9863;49.404;8.246;2022-09-14T02:18:49;17.70;99.90
19449;DHT22;9863;49.404;8.246;2022-09-14T02:21:20;17.70;99.90
19449;DHT22;9863;49.404;8.246;2022-09-14T02:23:51;17.70;99.90
19449;DHT22;9863;49.404;8.246;2022-09-14T02:26:20;17.70;99.90
19449;DHT22;9863;49.404;8.246;2022-09-14T02:28:50;17.70;99.90
19449;DHT22;9863;49.404;8.246;2022-09-14T02:48:41;17.70;99.90
19449;DHT22;9863;49.404;8.246;2022-09-14T02:51:37;17.70;99.90
19449;DHT22;9863;49.404;8.246;2022-09-14T02:54:16;17.70;99.90
19449;DHT22;9863;49.404;8.246;2022-09-14T02:56:47;17.60;99.90
19449;DHT22;9863;49.404;8.246;2022-09-14T02:59:15;17.60;99.90
19449;DHT22;9863;49.404;8.246;2022-09-14T03:01:44;17.60;99.90
19449;DHT22;9863;49.404;8.246;2022-09-14T03:04:13;17.60;99.90
19449;DHT22;9863;49.404;8.246;2022-09-14T03:06:40;17.60;99.90
19449;DHT22;9863;49.404;8.246;2022-09-14T03:09:08;17.60;99.90
19449;DHT22;9863;49.404;8.246;2022-09-14T03:11:36;17.50;99.90
19449;DHT22;9863;49.404;8.246;2022-09-14T03:14:04;17.50;99.90
19449;DHT22;9863;49.404;8.246;2022-09-14T03:16:32;17.50;99.90
19449;DHT22;9863;49.404;8.246;2022-09-14T03:19:00;17.50;99.90
19449;DHT22;9863;49.404;8.246;2022-09-14T03:21:27;17.50;99.90
19449;DHT22;9863;49.404;8.246;2022-09-14T03:23:55;17.50;99.90
19449;DHT22;9863;49.404;8.246;2022-09-14T03:26:26;17.50;99.90
19449;DHT22;9863;49.404;8.246;2022-09-14T03:28:57;17.40;99.90
19449;DHT22;9863;49.404;8.246;2022-09-14T03:31:25;17.40;99.90
19449;DHT22;9863;49.404;8.246;2022-09-14T03:33:55;17.40;99.90
19449;DHT22;9863;49.404;8.246;2022-09-14T03:36:27;17.40;99.90
19449;DHT22;9863;49.404;8.246;2022-09-14T03:38:58;18.60;99.90
19449;DHT22;9863;49.404;8.246;2022-09-14T03:41:27;17.40;99.90
19449;DHT22;9863;49.404;8.246;2022-09-14T03:43:55;17.40;99.90
19449;DHT22;9863;49.404;8.246;2022-09-14T03:46:23;17.50;99.90
19449;DHT22;9863;49.404;8.246;2022-09-14T03:48:53;17.50;99.90
19449;DHT22;9863;49.404;8.246;2022-09-14T03:51:22;18.30;99.90
19449;DHT22;9863;49.404;8.246;2022-09-14T03:53:50;17.50;99.90
19449;DHT22;9863;49.404;8.246;2022-09-14T03:56:20;17.60;99.90
19449;DHT22;9863;49.404;8.246;2022-09-14T03:58:49;17.50;99.90
19449;DHT22;9863;49.404;8.246;2022-09-14T04:01:19;17.60;99.90
19449;DHT22;9863;49.404;8.246;2022-09-14T04:03:48;17.50;99.90
19449;DHT22;9863;49.404;8.246;2022-09-14T04:06:18;16.60;99.90
19449;DHT22;9863;49.404;8.246;2022-09-14T04:08:46;17.60;99.90
19449;DHT22;9863;49.404;8.246;2022-09-14T04:11:16;17.50;99.90
19449;DHT22;9863;49.404;8.246;2022-09-14T04:13:46;17.50;99.90
19449;DHT22;9863;49.404;8.246;2022-09-14T04:16:15;17.60;99.90
19449;DHT22;9863;49.404;8.246;2022-09-14T04:18:43;17.60;99.90
19449;DHT22;9863;49.404;8.246;2022-09-14T04:21:20;17.60;99.90
19449;DHT22;9863;49.404;8.246;2022-09-14T04:23:56;17.60;99.90
19449;DHT22;9863;49.404;8.246;2022-09-14T04:26:43;17.60;99.90
19449;DHT22;9863;49.404;8.246;2022-09-14T04:29:12;17.60;99.90
19449;DHT22;9863;49.404;8.246;2022-09-14T04:31:40;17.60;99.90
19449;DHT22;9863;49.404;8.246;2022-09-14T04:34:11;17.60;99.90
19449;DHT22;9863;49.404;8.246;2022-09-14T04:36:41;17.60;99.90
19449;DHT22;9863;49.404;8.246;2022-09-14T04:39:11;17.60;99.90
19449;DHT22;9863;49.404;8.246;2022-09-14T04:41:40;17.60;99.90
19449;DHT22;9863;49.404;8.246;2022-09-14T04:44:08;17.60;99.90
19449;DHT22;9863;49.404;8.246;2022-09-14T04:46:36;17.60;99.90
19449;DHT22;9863;49.404;8.246;2022-09-14T04:49:14;17.50;99.90
19449;DHT22;9863;49.404;8.246;2022-09-14T04:51:45;17.50;99.90
19449;DHT22;9863;49.404;8.246;2022-09-14T04:54:15;17.50;99.90
19449;DHT22;9863;49.404;8.246;2022-09-14T04:56:44;17.50;99.90
19449;DHT22;9863;49.404;8.246;2022-09-14T04:59:12;17.50;99.90
19449;DHT22;9863;49.404;8.246;2022-09-14T05:01:43;17.50;99.90
19449;DHT22;9863;49.404;8.246;2022-09-14T05:04:14;17.50;99.90
19449;DHT22;9863;49.404;8.246;2022-09-14T05:06:43;17.40;99.90
19449;DHT22;9863;49.404;8.246;2022-09-14T05:09:13;17.40;99.90
19449;DHT22;9863;49.404;8.246;2022-09-14T05:11:44;17.40;99.90
19449;DHT22;9863;49.404;8.246;2022-09-14T05:14:13;17.40;99.90
19449;DHT22;9863;49.404;8.246;2022-09-14T05:16:42;17.40;99.90
19449;DHT22;9863;49.404;8.246;2022-09-14T05:19:16;17.50;99.90
19449;DHT22;9863;49.404;8.246;2022-09-14T05:21:44;17.50;99.90
19449;DHT22;9863;49.404;8.246;2022-09-14T05:24:17;17.40;99.90
19449;DHT22;9863;49.404;8.246;2022-09-14T05:26:45;17.40;99.90
19449;DHT22;9863;49.404;8.246;2022-09-14T05:29:16;17.40;99.90
19449;DHT22;9863;49.404;8.246;2022-09-14T05:31:45;17.40;99.90
19449;DHT22;9863;49.404;8.246;2022-09-14T05:34:13;17.40;99.90
19449;DHT22;9863;49.404;8.246;2022-09-14T05:36:41;17.40;99.90
19449;DHT22;9863;49.404;8.246;2022-09-14T05:39:09;17.40;99.90
19449;DHT22;9863;49.404;8.246;2022-09-14T05:41:37;17.50;99.90
19449;DHT22;9863;49.404;8.246;2022-09-14T05:53:58;17.60;99.90
19449;DHT22;9863;49.404;8.246;2022-09-14T05:56:28;17.50;99.90
19449;DHT22;9863;49.404;8.246;2022-09-14T05:58:58;17.50;99.90
19449;DHT22;9863;49.404;8.246;2022-09-14T06:01:28;17.60;99.90
19449;DHT22;9863;49.404;8.246;2022-09-14T06:04:00;17.60;99.90
19449;DHT22;9863;49.404;8.246;2022-09-14T06:06:30;17.60;99.90
19449;DHT22;9863;49.404;8.246;2022-09-14T06:08:59;17.50;99.90
19449;DHT22;9863;49.404;8.246;2022-09-14T06:11:29;17.60;99.90
19449;DHT22;9863;49.404;8.246;2022-09-14T06:13:59;17.60;99.90
19449;DHT22;9863;49.404;8.246;2022-09-14T06:16:28;17.60;99.90
19449;DHT22;9863;49.404;8.246;2022-09-14T06:18:57;17.70;99.90
19449;DHT22;9863;49.404;8.246;2022-09-14T06:21:31;17.70;99.90
19449;DHT22;9863;49.404;8.246;2022-09-14T06:24:00;17.70;99.90
19449;DHT22;9863;49.404;8.246;2022-09-14T06:26:28;17.80;99.90
19449;DHT22;9863;49.404;8.246;2022-09-14T06:28:57;17.80;99.90
19449;DHT22;9863;49.404;8.246;2022-09-14T06:31:26;17.80;99.90
19449;DHT22;9863;49.404;8.246;2022-09-14T06:33:53;17.80;99.90
19449;DHT22;9863;49.404;8.246;2022-09-14T06:36:24;17.80;99.90
19449;DHT22;9863;49.404;8.246;2022-09-14T06:38:53;17.80;99.90
19449;DHT22;9863;49.404;8.246;2022-09-14T06:41:25;17.80;99.90
19449;DHT22;9863;49.404;8.246;2022-09-14T06:43:58;17.80;99.90
19449;DHT22;9863;49.404;8.246;2022-09-14T06:46:32;17.80;99.90
19449;DHT22;9863;49.404;8.246;2022-09-14T06:49:04;17.90;99.90
19449;DHT22;9863;49.404;8.246;2022-09-14T06:51:34;17.80;99.90
19449;DHT22;9863;49.404;8.246;2022-09-14T06:54:04;17.90;99.90
19449;DHT22;9863;49.404;8.246;2022-09-14T06:56:41;18.00;99.90
19449;DHT22;9863;49.404;8.246;2022-09-14T06:59:12;18.00;99.90
19449;DHT22;9863;49.404;8.246;2022-09-14T07:01:42;18.00;99.90
19449;DHT22;9863;49.404;8.246;2022-09-14T07:04:16;18.00;99.90
19449;DHT22;9863;49.404;8.246;2022-09-14T07:06:46;18.00;99.90
19449;DHT22;9863;49.404;8.246;2022-09-14T07:09:16;18.00;99.90
19449;DHT22;9863;49.404;8.246;2022-09-14T07:11:46;18.00;99.90
19449;DHT22;9863;49.404;8.246;2022-09-14T07:14:15;18.00;99.90
19449;DHT22;9863;49.404;8.246;2022-09-14T07:16:43;18.00;99.90
19449;DHT22;9863;49.404;8.246;2022-09-14T07:19:13;18.00;99.90
19449;DHT22;9863;49.404;8.246;2022-09-14T07:21:42;18.10;99.90
19449;DHT22;9863;49.404;8.246;2022-09-14T07:24:11;18.10;99.90
19449;DHT22;9863;49.404;8.246;2022-09-14T07:26:41;18.20;99.90
19449;DHT22;9863;49.404;8.246;2022-09-14T07:29:15;18.20;99.90
19449;DHT22;9863;49.404;8.246;2022-09-14T07:31:50;18.20;99.90
19449;DHT22;9863;49.404;8.246;2022-09-14T07:34:19;18.30;99.90
19449;DHT22;9863;49.404;8.246;2022-09-14T07:36:47;18.20;99.90
19449;DHT22;9863;49.404;8.246;2022-09-14T07:39:16;18.30;99.90
19449;DHT22;9863;49.404;8.246;2022-09-14T07:41:44;18.30;99.90
19449;DHT22;9863;49.404;8.246;2022-09-14T07:44:15;18.40;99.90
19449;DHT22;9863;49.404;8.246;2022-09-14T07:46:44;18.50;99.90
19449;DHT22;9863;49.404;8.246;2022-09-14T07:49:14;18.50;99.90
19449;DHT22;9863;49.404;8.246;2022-09-14T07:51:43;18.70;99.90
19449;DHT22;9863;49.404;8.246;2022-09-14T07:54:13;18.70;99.90
19449;DHT22;9863;49.404;8.246;2022-09-14T07:56:43;18.80;99.90
19449;DHT22;9863;49.404;8.246;2022-09-14T07:59:13;18.80;99.90
19449;DHT22;9863;49.404;8.246;2022-09-14T08:02:01;18.90;99.90
19449;DHT22;9863;49.404;8.246;2022-09-14T08:04:36;18.90;99.90
19449;DHT22;9863;49.404;8.246;2022-09-14T08:07:05;19.00;99.90
19449;DHT22;9863;49.404;8.246;2022-09-14T08:09:34;18.90;99.90
19449;DHT22;9863;49.404;8.246;2022-09-14T08:12:02;18.90;99.90
19449;DHT22;9863;49.404;8.246;2022-09-14T08:14:32;18.80;99.90
19449;DHT22;9863;49.404;8.246;2022-09-14T08:17:00;18.80;99.90
19449;DHT22;9863;49.404;8.246;2022-09-14T08:19:28;18.90;99.90
19449;DHT22;9863;49.404;8.246;2022-09-14T08:21:56;18.90;99.90
19449;DHT22;9863;49.404;8.246;2022-09-14T08:24:24;18.90;99.90
19449;DHT22;9863;49.404;8.246;2022-09-14T08:26:52;19.00;99.90
19449;DHT22;9863;49.404;8.246;2022-09-14T08:29:21;18.90;99.90
19449;DHT22;9863;49.404;8.246;2022-09-14T08:31:49;19.00;99.90
19449;DHT22;9863;49.404;8.246;2022-09-14T08:34:19;19.10;99.90
19449;DHT22;9863;49.404;8.246;2022-09-14T08:36:47;19.10;99.90
19449;DHT22;9863;49.404;8.246;2022-09-14T08:39:16;19.20;99.90
19449;DHT22;9863;49.404;8.246;2022-09-14T08:41:58;19.40;99.90
19449;DHT22;9863;49.404;8.246;2022-09-14T08:44:34;19.40;99.90
19449;DHT22;9863;49.404;8.246;2022-09-14T08:49:56;19.50;99.90
19449;DHT22;9863;49.404;8.246;2022-09-14T08:54:59;19.70;99.90
19449;DHT22;9863;49.404;8.246;2022-09-14T09:00:32;20.00;99.90
19449;DHT22;9863;49.404;8.246;2022-09-14T09:06:08;20.00;99.90
19449;DHT22;9863;49.404;8.246;2022-09-14T09:11:37;20.10;99.90
19449;DHT22;9863;49.404;8.246;2022-09-14T09:14:32;20.10;99.90
19449;DHT22;9863;49.404;8.246;2022-09-14T09:17:11;20.20;99.90
19449;DHT22;9863;49.404;8.246;2022-09-14T09:19:50;20.30;99.90
19449;DHT22;9863;49.404;8.246;2022-09-14T09:22:24;20.40;99.90
19449;DHT22;9863;49.404;8.246;2022-09-14T09:24:57;20.50;99.90
19449;DHT22;9863;49.404;8.246;2022-09-14T09:27:25;20.60;99.90
19449;DHT22;9863;49.404;8.246;2022-09-14T09:29:54;20.60;99.90
19449;DHT22;9863;49.404;8.246;2022-09-14T09:32:26;21.60;99.90
19449;DHT22;9863;49.404;8.246;2022-09-14T09:35:15;20.80;99.90
19449;DHT22;9863;49.404;8.246;2022-09-14T09:37:53;20.90;99.90
19449;DHT22;9863;49.404;8.246;2022-09-14T09:40:33;21.00;99.90
19449;DHT22;9863;49.404;8.246;2022-09-14T09:43:10;21.10;99.90
19449;DHT22;9863;49.404;8.246;2022-09-14T09:46:00;21.20;99.90
19449;DHT22;9863;49.404;8.246;2022-09-14T09:48:39;21.10;99.90
19449;DHT22;9863;49.404;8.246;2022-09-14T09:56:25;21.70;99.90
19449;DHT22;9863;49.404;8.246;2022-09-14T09:58:55;21.50;99.90
19449;DHT22;9863;49.404;8.246;2022-09-14T10:01:28;22.00;99.90
19449;DHT22;9863;49.404;8.246;2022-09-14T10:06:30;22.30;99.90
19449;DHT22;9863;49.404;8.246;2022-09-14T10:08:58;22.40;99.90
19449;DHT22;9863;49.404;8.246;2022-09-14T10:14:04;22.50;99.90
19449;DHT22;9863;49.404;8.246;2022-09-14T10:16:45;22.50;99.90
19449;DHT22;9863;49.404;8.246;2022-09-14T10:19:21;22.70;99.90
19449;DHT22;9863;49.404;8.246;2022-09-14T10:30:40;23.00;99.90
19449;DHT22;9863;49.404;8.246;2022-09-14T10:33:15;23.70;99.90
19449;DHT22;9863;49.404;8.246;2022-09-14T10:38:49;24.10;99.90
19449;DHT22;9863;49.404;8.246;2022-09-14T10:44:32;23.80;99.90
19449;DHT22;9863;49.404;8.246;2022-09-14T10:50:52;24.30;99.90
19449;DHT22;9863;49.404;8.246;2022-09-14T10:54:20;24.50;99.90
19449;DHT22;9863;49.404;8.246;2022-09-14T11:00:18;25.40;99.90
19449;DHT22;9863;49.404;8.246;2022-09-14T11:05:59;25.60;99.90
19449;DHT22;9863;49.404;8.246;2022-09-14T11:08:58;25.60;99.90
19449;DHT22;9863;49.404;8.246;2022-09-14T11:17:19;26.40;99.90
19449;DHT22;9863;49.404;8.246;2022-09-14T11:26:15;26.30;99.90
19449;DHT22;9863;49.404;8.246;2022-09-14T11:28:53;26.00;99.90
19449;DHT22;9863;49.404;8.246;2022-09-14T11:32:04;25.90;99.90
19449;DHT22;9863;49.404;8.246;2022-09-14T11:34:56;25.90;99.90
19449;DHT22;9863;49.404;8.246;2022-09-14T11:37:37;25.40;99.90
19449;DHT22;9863;49.404;8.246;2022-09-14T11:43:14;25.60;99.90
19449;DHT22;9863;49.404;8.246;2022-09-14T11:45:49;25.70;99.90
19449;DHT22;9863;49.404;8.246;2022-09-14T11:48:43;25.70;99.90
19449;DHT22;9863;49.404;8.246;2022-09-14T11:51:27;25.80;99.90
19449;DHT22;9863;49.404;8.246;2022-09-14T11:53:58;25.70;99.90
19449;DHT22;9863;49.404;8.246;2022-09-14T11:56:30;25.80;99.90
19449;DHT22;9863;49.404;8.246;2022-09-14T11:59:03;25.60;99.90
19449;DHT22;9863;49.404;8.246;2022-09-14T12:01:37;25.40;99.90
19449;DHT22;9863;49.404;8.246;2022-09-14T12:04:07;25.50;99.90
19449;DHT22;9863;49.404;8.246;2022-09-14T12:11:58;25.60;99.90
19449;DHT22;9863;49.404;8.246;2022-09-14T12:14:33;25.50;99.90
19449;DHT22;9863;49.404;8.246;2022-09-14T12:23:30;25.30;99.90
19449;DHT22;9863;49.404;8.246;2022-09-14T12:28:48;25.40;99.90
19449;DHT22;9863;49.404;8.246;2022-09-14T12:34:18;25.10;99.90
19449;DHT22;9863;49.404;8.246;2022-09-14T12:39:23;24.50;99.90
19449;DHT22;9863;49.404;8.246;2022-09-14T12:44:41;24.20;99.90
19449;DHT22;9863;49.404;8.246;2022-09-14T12:50:03;23.90;99.90
19449;DHT22;9863;49.404;8.246;2022-09-14T12:58:32;23.60;99.90
19449;DHT22;9863;49.404;8.246;2022-09-14T13:01:34;23.60;99.90
19449;DHT22;9863;49.404;8.246;2022-09-14T13:04:29;23.60;99.90
19449;DHT22;9863;49.404;8.246;2022-09-14T13:07:03;23.60;99.90
19449;DHT22;9863;49.404;8.246;2022-09-14T13:09:33;23.60;99.90
19449;DHT22;9863;49.404;8.246;2022-09-14T13:12:08;23.60;99.90
19449;DHT22;9863;49.404;8.246;2022-09-14T13:14:50;23.50;99.90
19449;DHT22;9863;49.404;8.246;2022-09-14T13:17:19;23.50;99.90
19449;DHT22;9863;49.404;8.246;2022-09-14T13:22:26;23.40;99.90
19449;DHT22;9863;49.404;8.246;2022-09-14T13:24:59;23.40;99.90
19449;DHT22;9863;49.404;8.246;2022-09-14T13:27:35;23.40;99.90
19449;DHT22;9863;49.404;8.246;2022-09-14T13:32:42;23.20;99.90
19449;DHT22;9863;49.404;8.246;2022-09-14T13:35:28;23.20;99.90
19449;DHT22;9863;49.404;8.246;2022-09-14T13:38:04;23.10;99.90
19449;DHT22;9863;49.404;8.246;2022-09-14T13:40:35;23.00;99.90
19449;DHT22;9863;49.404;8.246;2022-09-14T13:43:03;22.90;99.90
19449;DHT22;9863;49.404;8.246;2022-09-14T13:45:32;22.90;99.90
19449;DHT22;9863;49.404;8.246;2022-09-14T13:48:00;22.90;99.90
19449;DHT22;9863;49.404;8.246;2022-09-14T13:50:28;22.70;99.90
19449;DHT22;9863;49.404;8.246;2022-09-14T13:58:12;22.40;99.90
19449;DHT22;9863;49.404;8.246;2022-09-14T14:01:03;22.30;99.90
19449;DHT22;9863;49.404;8.246;2022-09-14T14:03:48;22.20;99.90
19449;DHT22;9863;49.404;8.246;2022-09-14T14:06:33;22.20;99.90
19449;DHT22;9863;49.404;8.246;2022-09-14T14:09:07;22.20;99.90
19449;DHT22;9863;49.404;8.246;2022-09-14T14:11:42;22.20;99.90
19449;DHT22;9863;49.404;8.246;2022-09-14T14:14:24;22.20;99.90
19449;DHT22;9863;49.404;8.246;2022-09-14T14:20:26;22.10;99.90
19449;DHT22;9863;49.404;8.246;2022-09-14T14:22:58;22.00;99.90
19449;DHT22;9863;49.404;8.246;2022-09-14T14:25:38;19.00;99.90
19449;DHT22;9863;49.404;8.246;2022-09-14T14:28:16;21.60;99.90
19449;DHT22;9863;49.404;8.246;2022-09-14T14:30:46;21.40;99.90
19449;DHT22;9863;49.404;8.246;2022-09-14T14:33:16;21.40;99.90
19449;DHT22;9863;49.404;8.246;2022-09-14T14:35:51;21.30;99.90
19449;DHT22;9863;49.404;8.246;2022-09-14T14:38:22;21.20;99.90
19449;DHT22;9863;49.404;8.246;2022-09-14T14:40:52;21.20;99.90
19449;DHT22;9863;49.404;8.246;2022-09-14T14:43:23;21.10;99.90
19449;DHT22;9863;49.404;8.246;2022-09-14T14:45:58;21.10;99.90
19449;DHT22;9863;49.404;8.246;2022-09-14T14:48:27;21.10;99.90
19449;DHT22;9863;49.404;8.246;2022-09-14T14:50:55;21.00;99.90
19449;DHT22;9863;49.404;8.246;2022-09-14T14:53:24;20.90;99.90
19449;DHT22;9863;49.404;8.246;2022-09-14T14:58:21;21.00;99.90
19449;DHT22;9863;49.404;8.246;2022-09-14T15:05:47;20.80;99.90
19449;DHT22;9863;49.404;8.246;2022-09-14T15:08:16;20.80;99.90
19449;DHT22;9863;49.404;8.246;2022-09-14T15:10:46;20.80;99.90
19449;DHT22;9863;49.404;8.246;2022-09-14T15:13:15;20.70;99.90
19449;DHT22;9863;49.404;8.246;2022-09-14T15:15:43;20.70;99.90
19449;DHT22;9863;49.404;8.246;2022-09-14T15:18:11;20.70;99.90
19449;DHT22;9863;49.404;8.246;2022-09-14T15:23:08;20.50;99.90
19449;DHT22;9863;49.404;8.246;2022-09-14T15:25:39;20.50;99.90
19449;DHT22;9863;49.404;8.246;2022-09-14T15:30:34;20.50;99.90
19449;DHT22;9863;49.404;8.246;2022-09-14T15:33:02;20.40;99.90
19449;DHT22;9863;49.404;8.246;2022-09-14T15:35:30;20.50;99.90
19449;DHT22;9863;49.404;8.246;2022-09-14T15:38:01;20.60;99.90
19449;DHT22;9863;49.404;8.246;2022-09-14T15:40:40;20.60;99.90
19449;DHT22;9863;49.404;8.246;2022-09-14T15:43:18;20.70;99.90
19449;DHT22;9863;49.404;8.246;2022-09-14T15:46:07;20.70;99.90
19449;DHT22;9863;49.404;8.246;2022-09-14T15:48:48;20.70;99.90
19449;DHT22;9863;49.404;8.246;2022-09-14T15:51:16;20.80;99.90
19449;DHT22;9863;49.404;8.246;2022-09-14T15:53:46;20.70;99.90
19449;DHT22;9863;49.404;8.246;2022-09-14T15:56:15;20.70;99.90
19449;DHT22;9863;49.404;8.246;2022-09-14T15:58:43;20.70;99.90
19449;DHT22;9863;49.404;8.246;2022-09-14T16:01:16;20.70;99.90
19449;DHT22;9863;49.404;8.246;2022-09-14T16:03:45;20.70;99.90
19449;DHT22;9863;49.404;8.246;2022-09-14T16:06:13;20.70;99.90
19449;DHT22;9863;49.404;8.246;2022-09-14T16:08:41;20.80;99.90
19449;DHT22;9863;49.404;8.246;2022-09-14T16:16:07;21.20;99.90
19449;DHT22;9863;49.404;8.246;2022-09-14T16:18:40;24.60;99.90
19449;DHT22;9863;49.404;8.246;2022-09-14T16:21:35;21.40;99.90
19449;DHT22;9863;49.404;8.246;2022-09-14T16:24:05;21.60;99.90
19449;DHT22;9863;49.404;8.246;2022-09-14T16:26:38;21.80;99.90
19449;DHT22;9863;49.404;8.246;2022-09-14T16:29:09;21.90;99.90
19449;DHT22;9863;49.404;8.246;2022-09-14T16:31:42;22.00;99.90
19449;DHT22;9863;49.404;8.246;2022-09-14T16:34:25;22.30;99.90
19449;DHT22;9863;49.404;8.246;2022-09-14T16:36:55;22.30;99.90
19449;DHT22;9863;49.404;8.246;2022-09-14T16:39:26;22.30;99.90
19449;DHT22;9863;49.404;8.246;2022-09-14T16:41:56;22.30;99.90
19449;DHT22;9863;49.404;8.246;2022-09-14T16:44:26;22.30;99.90
19449;DHT22;9863;49.404;8.246;2022-09-14T16:46:56;22.50;99.90
19449;DHT22;9863;49.404;8.246;2022-09-14T16:49:25;22.50;99.90
19449;DHT22;9863;49.404;8.246;2022-09-14T16:51:55;22.40;99.90
19449;DHT22;9863;49.404;8.246;2022-09-14T16:54:27;22.20;99.90
19449;DHT22;9863;49.404;8.246;2022-09-14T16:56:56;22.10;99.90
19449;DHT22;9863;49.404;8.246;2022-09-14T16:59:26;22.00;99.90
19449;DHT22;9863;49.404;8.246;2022-09-14T17:01:54;22.00;99.90
19449;DHT22;9863;49.404;8.246;2022-09-14T17:04:23;21.90;99.90
19449;DHT22;9863;49.404;8.246;2022-09-14T17:06:52;22.00;99.90
19449;DHT22;9863;49.404;8.246;2022-09-14T17:09:25;21.90;99.90
19449;DHT22;9863;49.404;8.246;2022-09-14T17:11:56;21.90;99.90
19449;DHT22;9863;49.404;8.246;2022-09-14T17:14:29;24.30;99.90
19449;DHT22;9863;49.404;8.246;2022-09-14T17:16:59;21.70;99.90
19449;DHT22;9863;49.404;8.246;2022-09-14T17:19:27;21.50;99.90
19449;DHT22;9863;49.404;8.246;2022-09-14T17:26:52;21.40;99.90
19449;DHT22;9863;49.404;8.246;2022-09-14T17:31:49;21.40;99.90
19449;DHT22;9863;49.404;8.246;2022-09-14T17:34:18;21.40;99.90
19449;DHT22;9863;49.404;8.246;2022-09-14T17:36:46;21.30;99.90
19449;DHT22;9863;49.404;8.246;2022-09-14T17:39:14;21.30;99.90
19449;DHT22;9863;49.404;8.246;2022-09-14T17:41:42;21.30;99.90
19449;DHT22;9863;49.404;8.246;2022-09-14T17:44:13;21.20;99.90
19449;DHT22;9863;49.404;8.246;2022-09-14T17:46:42;21.10;99.90
19449;DHT22;9863;49.404;8.246;2022-09-14T17:49:21;21.00;99.90
19449;DHT22;9863;49.404;8.246;2022-09-14T17:51:50;21.00;99.90
19449;DHT22;9863;49.404;8.246;2022-09-14T17:54:18;21.10;99.90
19449;DHT22;9863;49.404;8.246;2022-09-14T17:56:46;21.00;99.90
19449;DHT22;9863;49.404;8.246;2022-09-14T17:59:17;21.00;99.90
19449;DHT22;9863;49.404;8.246;2022-09-14T18:01:50;21.00;99.90
19449;DHT22;9863;49.404;8.246;2022-09-14T18:04:18;21.00;99.90
19449;DHT22;9863;49.404;8.246;2022-09-14T18:06:47;21.00;99.90
19449;DHT22;9863;49.404;8.246;2022-09-14T18:09:21;20.90;99.90
19449;DHT22;9863;49.404;8.246;2022-09-14T18:11:54;20.90;99.90
19449;DHT22;9863;49.404;8.246;2022-09-14T18:14:23;20.90;99.90
19449;DHT22;9863;49.404;8.246;2022-09-14T18:16:51;20.90;99.90
19449;DHT22;9863;49.404;8.246;2022-09-14T18:19:19;21.00;99.90
19449;DHT22;9863;49.404;8.246;2022-09-14T18:21:48;20.90;99.90
19449;DHT22;9863;49.404;8.246;2022-09-14T18:24:19;20.90;99.90
19449;DHT22;9863;49.404;8.246;2022-09-14T18:26:48;20.80;99.90
19449;DHT22;9863;49.404;8.246;2022-09-14T18:29:17;17.70;99.90
19449;DHT22;9863;49.404;8.246;2022-09-14T18:31:49;20.80;99.90
19449;DHT22;9863;49.404;8.246;2022-09-14T18:34:19;20.70;99.90
19449;DHT22;9863;49.404;8.246;2022-09-14T18:36:49;20.70;99.90
19449;DHT22;9863;49.404;8.246;2022-09-14T18:41:49;20.70;99.90
19449;DHT22;9863;49.404;8.246;2022-09-14T18:44:21;20.60;99.90
19449;DHT22;9863;49.404;8.246;2022-09-14T18:46:49;20.50;99.90
19449;DHT22;9863;49.404;8.246;2022-09-14T18:49:18;17.60;99.90
19449;DHT22;9863;49.404;8.246;2022-09-14T18:51:46;20.40;99.90
19449;DHT22;9863;49.404;8.246;2022-09-14T18:54:14;20.40;99.90
19449;DHT22;9863;49.404;8.246;2022-09-14T18:59:12;20.30;99.90
19449;DHT22;9863;49.404;8.246;2022-09-14T19:01:40;20.30;99.90
19449;DHT22;9863;49.404;8.246;2022-09-14T19:06:38;20.20;99.90
19449;DHT22;9863;49.404;8.246;2022-09-14T19:09:08;20.00;99.90
19449;DHT22;9863;49.404;8.246;2022-09-14T19:14:06;20.10;99.90
19449;DHT22;9863;49.404;8.246;2022-09-14T19:16:39;20.00;99.90
19449;DHT22;9863;49.404;8.246;2022-09-14T19:19:10;20.00;99.90
19449;DHT22;9863;49.404;8.246;2022-09-14T19:21:40;19.90;99.90
19449;DHT22;9863;49.404;8.246;2022-09-14T19:24:14;19.90;99.90
19449;DHT22;9863;49.404;8.246;2022-09-14T19:26:48;19.90;99.90
19449;DHT22;9863;49.404;8.246;2022-09-14T19:29:20;19.80;99.90